createdAt,value
2023-05-08T00:01:29.461Z,5.50
2023-05-08T00:03:56.473Z,5.33
2023-05-08T00:06:23.831Z,4.50
2023-05-08T00:08:51.411Z,5.83
2023-05-08T00:11:18.150Z,6.03
2023-05-08T00:13:45.189Z,8.03
2023-05-08T00:16:12.684Z,6.20
2023-05-08T00:18:40.172Z,7.40
2023-05-08T00:21:07.129Z,5.17
2023-05-08T00:23:34.204Z,6.03
2023-05-08T00:26:01.356Z,5.40
2023-05-08T00:28:28.261Z,6.90
2023-05-08T00:30:55.230Z,5.53
2023-05-08T00:33:22.003Z,4.80
2023-05-08T00:35:48.861Z,6.07
2023-05-08T00:38:15.932Z,4.70
2023-05-08T00:40:43.498Z,8.60
2023-05-08T00:43:10.293Z,7.53
2023-05-08T00:45:39.730Z,5.33
2023-05-08T00:48:07.429Z,5.63
2023-05-08T00:50:34.740Z,5.53
2023-05-08T00:53:03.816Z,5.50
2023-05-08T00:55:32.397Z,5.17
2023-05-08T00:57:59.906Z,7.07
2023-05-08T01:00:27.059Z,5.07
2023-05-08T01:02:54.244Z,6.60
2023-05-08T01:05:21.134Z,6.20
2023-05-08T01:07:48.311Z,5.67
2023-05-08T01:10:16.687Z,4.77
2023-05-08T01:13:09.225Z,5.57
2023-05-08T01:15:47.509Z,6.93
2023-05-08T01:18:42.551Z,7.90
2023-05-08T01:21:32.325Z,6.40
2023-05-08T01:24:29.420Z,4.90
2023-05-08T01:27:16.969Z,7.03
2023-05-08T01:30:14.365Z,5.70
2023-05-08T01:32:44.004Z,6.97
2023-05-08T01:35:43.084Z,6.00
2023-05-08T01:38:19.650Z,5.97
2023-05-08T01:40:54.511Z,6.27
2023-05-08T01:43:33.600Z,7.07
2023-05-08T01:46:05.759Z,6.07
2023-05-08T01:48:44.388Z,6.20
2023-05-08T01:51:20.034Z,9.90
2023-05-08T01:53:58.301Z,6.03
2023-05-08T01:56:27.111Z,10.23
2023-05-08T01:58:55.072Z,6.20
2023-05-08T02:01:25.309Z,15.90
2023-05-08T02:03:53.784Z,6.93
2023-05-08T02:06:22.656Z,6.30
2023-05-08T02:08:51.526Z,5.93
2023-05-08T02:11:19.988Z,6.80
2023-05-08T02:13:49.912Z,6.40
2023-05-08T02:16:17.919Z,6.77
2023-05-08T02:18:52.305Z,6.07
2023-05-08T02:21:20.650Z,8.17
2023-05-08T02:23:48.916Z,10.30
2023-05-08T02:26:16.401Z,6.60
2023-05-08T02:28:45.212Z,7.57
2023-05-08T02:31:13.452Z,6.57
2023-05-08T02:33:42.365Z,9.00
2023-05-08T02:36:13.080Z,6.40
2023-05-08T02:38:44.037Z,6.83
2023-05-08T02:41:13.504Z,7.97
2023-05-08T02:43:40.970Z,6.43
2023-05-08T02:46:24.123Z,8.10
2023-05-08T02:49:06.082Z,6.50
2023-05-08T02:52:17.095Z,7.50
2023-05-08T02:54:58.942Z,7.70
2023-05-08T02:57:49.077Z,8.23
2023-05-08T03:00:20.923Z,7.63
2023-05-08T03:02:52.873Z,10.53
2023-05-08T03:05:25.910Z,7.13
2023-05-08T03:07:56.246Z,7.53
2023-05-08T03:10:31.804Z,8.97
2023-05-08T03:13:00.101Z,18.63
2023-05-08T03:15:34.535Z,9.77
2023-05-08T03:18:08.029Z,9.97
2023-05-08T03:20:39.848Z,8.00
2023-05-08T03:23:09.672Z,7.20
2023-05-08T03:25:40.203Z,7.23
2023-05-08T03:28:07.847Z,7.80
2023-05-08T03:30:37.474Z,11.63
2023-05-08T03:33:09.208Z,7.73
2023-05-08T03:35:38.096Z,8.77
2023-05-08T03:38:06.785Z,9.70
2023-05-08T03:40:44.414Z,7.20
2023-05-08T03:43:12.106Z,7.47
2023-05-08T03:45:41.010Z,7.50
2023-05-08T03:48:09.759Z,7.60
2023-05-08T03:50:38.442Z,7.67
2023-05-08T03:53:08.638Z,8.30
2023-05-08T03:55:36.585Z,7.43
2023-05-08T03:58:17.647Z,10.93
2023-05-08T04:00:59.345Z,7.60
2023-05-08T04:03:44.945Z,8.10
2023-05-08T04:06:30.789Z,7.70
2023-05-08T04:09:24.927Z,8.00
2023-05-08T04:12:17.984Z,9.07
2023-05-08T04:14:56.568Z,7.83
2023-05-08T04:17:34.861Z,11.60
2023-05-08T04:20:04.740Z,8.50
2023-05-08T04:22:34.623Z,9.80
2023-05-08T04:25:05.550Z,7.67
2023-05-08T04:27:33.104Z,9.30
2023-05-08T04:30:00.728Z,11.07
2023-05-08T04:32:30.298Z,11.20
2023-05-08T04:34:59.415Z,8.83
2023-05-08T04:37:27.792Z,9.03
2023-05-08T04:39:57.488Z,10.73
2023-05-08T04:42:26.768Z,13.03
2023-05-08T04:44:55.686Z,11.73
2023-05-08T04:47:24.079Z,10.53
2023-05-08T04:49:51.354Z,13.93
2023-05-08T04:52:18.303Z,12.97
2023-05-08T04:54:45.144Z,12.30
2023-05-08T04:57:12.171Z,10.43
2023-05-08T04:59:39.111Z,11.70
2023-05-08T05:02:08.325Z,17.10
2023-05-08T05:04:36.826Z,14.30
2023-05-08T05:07:04.730Z,11.57
2023-05-08T05:09:34.880Z,9.07
2023-05-08T05:12:02.074Z,9.20
2023-05-08T05:14:30.476Z,8.53
2023-05-08T05:16:57.256Z,11.07
2023-05-08T05:19:24.222Z,8.87
2023-05-08T05:21:51.254Z,9.13
2023-05-08T05:24:18.228Z,9.10
2023-05-08T05:26:44.993Z,12.40
2023-05-08T05:29:11.996Z,10.70
2023-05-08T05:31:39.052Z,8.50
2023-05-08T05:34:06.364Z,10.20
2023-05-08T05:36:33.316Z,9.37
2023-05-08T05:39:00.140Z,12.93
2023-05-08T05:41:27.057Z,9.03
2023-05-08T05:43:53.848Z,9.67
2023-05-08T05:46:20.895Z,13.93
2023-05-08T05:48:47.629Z,11.57
2023-05-08T05:51:14.785Z,9.00
2023-05-08T05:53:41.600Z,19.17
2023-05-08T05:56:09.128Z,14.53
2023-05-08T05:58:36.197Z,16.50
2023-05-08T06:01:03.104Z,18.10
2023-05-08T06:03:30.807Z,13.10
2023-05-08T06:05:58.074Z,11.13
2023-05-08T06:08:27.066Z,12.40
2023-05-08T06:10:56.628Z,12.40
2023-05-08T06:13:23.426Z,11.10
2023-05-08T06:15:51.022Z,11.17
2023-05-08T06:18:18.595Z,8.67
2023-05-08T06:20:45.438Z,9.93
2023-05-08T06:23:12.402Z,8.90
2023-05-08T06:25:39.268Z,9.30
2023-05-08T06:28:08.083Z,8.07
2023-05-08T06:30:35.062Z,13.13
2023-05-08T06:33:03.305Z,7.20
2023-05-08T06:35:30.113Z,10.37
2023-05-08T06:37:57.250Z,14.43
2023-05-08T06:40:24.486Z,13.03
2023-05-08T06:42:51.231Z,9.07
2023-05-08T06:45:18.071Z,14.30
2023-05-08T06:47:45.282Z,9.80
2023-05-08T06:50:12.211Z,8.60
2023-05-08T06:52:39.379Z,10.77
2023-05-08T06:55:06.442Z,10.13
2023-05-08T06:57:33.630Z,15.67
2023-05-08T07:00:00.489Z,13.07
2023-05-08T07:02:27.365Z,10.73
2023-05-08T07:04:54.347Z,14.53
2023-05-08T07:07:21.127Z,16.50
2023-05-08T07:09:47.908Z,8.67
2023-05-08T07:12:16.682Z,8.93
2023-05-08T07:14:43.725Z,8.07
2023-05-08T07:17:10.621Z,10.40
2023-05-08T07:19:38.221Z,10.20
2023-05-08T07:22:05.968Z,8.87
2023-05-08T07:24:34.126Z,9.10
2023-05-08T07:27:01.328Z,9.67
2023-05-08T07:29:28.169Z,9.30
2023-05-08T07:31:55.262Z,8.53
2023-05-08T07:34:22.164Z,9.70
2023-05-08T07:36:48.958Z,7.80
2023-05-08T07:39:16.366Z,11.30
2023-05-08T07:41:43.313Z,9.07
2023-05-08T07:44:10.146Z,8.90
2023-05-08T07:46:37.496Z,9.90
2023-05-08T07:49:04.487Z,12.07
2023-05-08T07:51:32.401Z,9.27
2023-05-08T07:53:59.556Z,8.30
2023-05-08T07:56:27.497Z,9.77
2023-05-08T07:58:54.514Z,9.07
2023-05-08T08:01:21.339Z,9.03
2023-05-08T08:03:48.596Z,11.73
2023-05-08T08:06:15.488Z,9.10
2023-05-08T08:08:42.345Z,12.50
2023-05-08T08:11:09.266Z,10.10
2023-05-08T08:13:36.195Z,13.57
2023-05-08T08:16:04.230Z,10.73
2023-05-08T08:18:35.657Z,8.80
2023-05-08T08:21:08.116Z,10.27
2023-05-08T08:23:34.987Z,9.83
2023-05-08T08:26:01.818Z,9.77
2023-05-08T08:28:28.854Z,9.13
2023-05-08T08:30:56.394Z,9.13
2023-05-08T08:33:23.324Z,10.97
2023-05-08T08:35:50.374Z,8.53
2023-05-08T08:38:17.159Z,13.63
2023-05-08T08:40:44.414Z,9.93
2023-05-08T08:43:11.362Z,9.00
2023-05-08T08:45:38.227Z,9.30
2023-05-08T08:48:09.862Z,9.23
2023-05-08T08:50:41.660Z,9.43
2023-05-08T08:53:15.799Z,8.67
2023-05-08T08:55:46.636Z,12.87
2023-05-08T08:58:27.362Z,9.23
2023-05-08T09:00:56.101Z,10.37
2023-05-08T09:03:23.204Z,9.17
2023-05-08T09:05:50.085Z,10.33
2023-05-08T09:08:18.823Z,10.20
2023-05-08T09:10:47.257Z,9.90
2023-05-08T09:13:14.168Z,8.73
2023-05-08T09:15:41.566Z,12.40
2023-05-08T09:18:08.526Z,10.47
2023-05-08T09:20:36.028Z,8.40
2023-05-08T09:23:03.743Z,13.83
2023-05-08T09:25:48.525Z,10.33
2023-05-08T09:28:19.970Z,9.23
2023-05-08T09:30:51.307Z,11.50
2023-05-08T09:33:18.565Z,9.03
2023-05-08T09:35:45.572Z,10.43
2023-05-08T09:38:39.919Z,11.60
2023-05-08T09:41:12.551Z,11.73
2023-05-08T09:43:39.467Z,19.33
2023-05-08T09:46:27.879Z,13.07
2023-05-08T09:48:56.848Z,10.50
2023-05-08T09:51:24.688Z,11.43
2023-05-08T09:53:53.572Z,10.70
2023-05-08T09:56:34.171Z,12.20
2023-05-08T09:59:21.654Z,10.00
2023-05-08T10:01:48.954Z,9.80
2023-05-08T10:04:15.838Z,11.10
2023-05-08T10:06:42.855Z,13.93
2023-05-08T10:09:12.606Z,10.70
2023-05-08T10:11:41.298Z,14.70
2023-05-08T10:14:08.474Z,11.87
2023-05-08T10:16:44.263Z,11.43
2023-05-08T10:19:15.141Z,11.37
2023-05-08T10:21:46.664Z,11.87
2023-05-08T10:24:16.534Z,11.60
2023-05-08T10:27:05.453Z,12.70
2023-05-08T10:29:41.952Z,11.13
2023-05-08T10:32:14.250Z,12.57
2023-05-08T10:34:42.237Z,11.23
2023-05-08T10:37:11.047Z,13.90
2023-05-08T10:39:38.884Z,11.70
2023-05-08T10:42:05.778Z,11.47
2023-05-08T10:44:32.719Z,11.90
2023-05-08T10:47:16.324Z,10.93
2023-05-08T10:50:04.362Z,13.53
2023-05-08T10:53:16.637Z,14.17
2023-05-08T10:55:47.384Z,14.20
2023-05-08T10:58:56.069Z,12.67
2023-05-08T11:01:23.173Z,12.50
2023-05-08T11:03:51.024Z,12.23
2023-05-08T11:06:38.201Z,15.00
2023-05-08T11:09:05.290Z,13.87
2023-05-08T11:11:33.769Z,14.90
2023-05-08T11:14:12.125Z,13.90
2023-05-08T11:16:54.294Z,14.20
2023-05-08T11:19:22.958Z,12.23
2023-05-08T11:22:12.609Z,12.60
2023-05-08T11:24:46.801Z,12.20
2023-05-08T11:27:14.262Z,15.90
2023-05-08T11:29:41.264Z,14.77
2023-05-08T11:32:08.475Z,12.83
2023-05-08T11:34:44.335Z,17.10
2023-05-08T11:37:22.635Z,14.30
2023-05-08T11:39:49.752Z,17.60
2023-05-08T11:42:37.063Z,14.90
2023-05-08T11:45:13.776Z,14.97
2023-05-08T11:47:45.366Z,15.23
2023-05-08T11:50:13.771Z,14.43
2023-05-08T11:52:42.200Z,14.63
2023-05-08T11:55:11.304Z,14.57
2023-05-08T11:57:38.660Z,15.07
2023-05-08T12:00:10.906Z,14.03
2023-05-08T12:02:42.608Z,14.10
2023-05-08T12:05:11.384Z,15.17
2023-05-08T12:07:46.776Z,17.23
2023-05-08T12:10:15.101Z,16.97
2023-05-08T12:12:44.324Z,15.70
2023-05-08T12:15:13.760Z,15.17
2023-05-08T12:17:41.534Z,14.60
2023-05-08T12:20:19.171Z,13.83
2023-05-08T12:22:53.593Z,14.60
2023-05-08T12:25:20.693Z,14.90
2023-05-08T12:27:47.895Z,18.43
2023-05-08T12:30:15.859Z,16.87
2023-05-08T12:32:44.471Z,15.90
2023-05-08T12:35:12.649Z,17.33
2023-05-08T12:37:40.288Z,16.17
2023-05-08T12:40:08.128Z,18.03
2023-05-08T12:42:51.160Z,17.47
2023-05-08T12:45:22.441Z,16.80
2023-05-08T12:47:50.420Z,19.10
2023-05-08T12:50:21.179Z,22.40
2023-05-08T12:52:51.313Z,16.17
2023-05-08T12:55:25.979Z,23.07
2023-05-08T12:57:59.481Z,18.03
2023-05-08T13:00:26.436Z,17.20
2023-05-08T13:02:56.456Z,17.63
2023-05-08T13:05:24.104Z,25.27
2023-05-08T13:07:51.467Z,17.00
2023-05-08T13:10:20.692Z,19.10
2023-05-08T13:12:49.178Z,18.33
2023-05-08T13:15:16.151Z,25.80
2023-05-08T13:17:43.078Z,17.37
2023-05-08T13:20:11.466Z,18.13
2023-05-08T13:22:38.408Z,18.43
2023-05-08T13:25:05.873Z,17.33
2023-05-08T13:27:32.973Z,18.03
2023-05-08T13:29:59.884Z,17.17
2023-05-08T13:32:27.002Z,18.83
2023-05-08T13:34:56.460Z,19.57
2023-05-08T13:37:26.680Z,19.67
2023-05-08T13:39:53.506Z,17.10
2023-05-08T13:42:20.315Z,17.37
2023-05-08T13:44:47.063Z,18.23
2023-05-08T13:47:14.355Z,18.90
2023-05-08T13:49:41.449Z,17.53
2023-05-08T13:52:08.178Z,17.57
2023-05-08T13:54:34.952Z,17.17
2023-05-08T13:57:02.723Z,18.53
2023-05-08T13:59:31.222Z,16.90
2023-05-08T14:01:58.035Z,17.47
2023-05-08T14:04:25.264Z,16.13
2023-05-08T14:06:52.035Z,22.07
2023-05-08T14:09:18.837Z,17.97
2023-05-08T14:11:45.636Z,22.33
2023-05-08T14:14:12.397Z,20.30
2023-05-08T14:16:39.543Z,22.60
2023-05-08T14:19:06.488Z,15.63
2023-05-08T14:21:34.877Z,15.67
2023-05-08T14:24:01.671Z,15.67
2023-05-08T14:26:28.568Z,18.47
2023-05-08T14:28:55.457Z,16.90
2023-05-08T14:31:22.614Z,25.80
2023-05-08T14:33:49.474Z,28.03
2023-05-08T14:36:16.318Z,18.30
2023-05-08T14:38:43.093Z,21.70
2023-05-08T14:41:09.878Z,16.90
2023-05-08T14:43:36.758Z,18.10
2023-05-08T14:46:03.540Z,25.90
2023-05-08T14:48:30.401Z,18.30
2023-05-08T14:50:57.705Z,22.03
2023-05-08T14:53:24.621Z,20.33
2023-05-08T14:55:51.781Z,23.53
2023-05-08T14:58:18.714Z,16.70
2023-05-08T15:00:46.128Z,16.37
2023-05-08T15:03:13.267Z,16.70
2023-05-08T15:05:40.157Z,21.53
2023-05-08T15:08:07.089Z,17.43
2023-05-08T15:10:33.902Z,21.90
2023-05-08T15:13:00.864Z,17.90
2023-05-08T15:15:27.800Z,18.63
2023-05-08T15:17:54.579Z,18.90
2023-05-08T15:20:21.572Z,20.00
2023-05-08T15:22:48.343Z,16.77
2023-05-08T15:25:15.269Z,17.23
2023-05-08T15:27:42.245Z,18.27
2023-05-08T15:30:09.566Z,20.60
2023-05-08T15:32:36.375Z,18.50
2023-05-08T15:35:03.373Z,18.40
2023-05-08T15:37:30.167Z,19.13
2023-05-08T15:39:56.895Z,18.60
2023-05-08T15:42:23.705Z,15.70
2023-05-08T15:47:22.666Z,18.00
2023-05-08T15:49:49.776Z,19.57
2023-05-08T15:52:18.695Z,22.07
2023-05-08T15:54:46.687Z,19.00
2023-05-08T15:57:13.434Z,18.83
2023-05-08T15:59:40.387Z,23.60
2023-05-08T16:02:08.101Z,18.93
2023-05-08T16:04:34.973Z,17.50
2023-05-08T16:07:01.934Z,21.33
2023-05-08T16:09:28.991Z,21.87
2023-05-08T16:11:55.898Z,19.93
2023-05-08T16:14:22.619Z,17.07
2023-05-08T16:16:49.630Z,17.63
2023-05-08T16:19:16.347Z,19.30
2023-05-08T16:21:47.688Z,20.40
2023-05-08T16:24:15.103Z,19.33
2023-05-08T16:26:41.919Z,20.40
2023-05-08T16:29:08.658Z,20.03
2023-05-08T16:31:35.622Z,19.77
2023-05-08T16:34:02.736Z,17.57
2023-05-08T16:36:29.797Z,19.00
2023-05-08T16:38:56.591Z,18.30
2023-05-08T16:41:23.699Z,18.70
2023-05-08T16:43:50.512Z,18.43
2023-05-08T16:46:20.807Z,18.20
2023-05-08T16:48:53.507Z,17.77
2023-05-08T16:51:20.300Z,19.67
2023-05-08T16:53:47.030Z,16.70
2023-05-08T16:56:13.750Z,22.83
2023-05-08T16:58:43.192Z,18.67
2023-05-08T17:01:11.641Z,19.60
2023-05-08T17:03:38.628Z,20.50
2023-05-08T17:06:09.370Z,16.03
2023-05-08T17:08:36.217Z,17.77
2023-05-08T17:11:03.230Z,18.17
2023-05-08T17:13:30.151Z,18.63
2023-05-08T17:15:58.554Z,20.83
2023-05-08T17:18:25.561Z,16.60
2023-05-08T17:20:52.346Z,19.30
2023-05-08T17:23:19.349Z,27.80
2023-05-08T17:25:46.132Z,18.57
2023-05-08T17:28:13.248Z,19.77
2023-05-08T17:30:40.191Z,17.83
2023-05-08T17:33:07.332Z,19.20
2023-05-08T17:35:34.283Z,18.60
2023-05-08T17:38:01.106Z,17.87
2023-05-08T17:40:29.015Z,22.10
2023-05-08T17:42:55.998Z,18.83
2023-05-08T17:45:22.788Z,23.97
2023-05-08T17:47:49.710Z,20.20
2023-05-08T17:50:16.981Z,29.17
2023-05-08T17:52:43.740Z,17.70
2023-05-08T17:55:10.784Z,21.83
2023-05-08T17:57:37.674Z,25.90
2023-05-08T18:00:06.115Z,20.20
2023-05-08T18:02:35.420Z,22.73
2023-05-08T18:05:02.310Z,15.90
2023-05-08T18:07:29.285Z,20.13
2023-05-08T18:09:56.122Z,20.20
2023-05-08T18:12:23.017Z,19.00
2023-05-08T18:14:49.747Z,59.23
2023-05-08T18:17:19.211Z,24.80
2023-05-08T18:19:46.374Z,20.30
2023-05-08T18:22:13.186Z,20.47
2023-05-08T18:24:40.441Z,18.50
2023-05-08T18:27:07.599Z,18.10
2023-05-08T18:29:34.495Z,17.70
2023-05-08T18:32:01.260Z,18.97
2023-05-08T18:34:28.111Z,18.03
2023-05-08T18:36:56.112Z,23.53
2023-05-08T18:39:24.771Z,21.30
2023-05-08T18:41:51.534Z,21.20
2023-05-08T18:44:18.833Z,21.83
2023-05-08T18:46:45.692Z,17.97
2023-05-08T18:49:12.549Z,17.00
2023-05-08T18:51:39.475Z,20.13
2023-05-08T18:54:06.347Z,20.20
2023-05-08T18:56:34.286Z,21.00
2023-05-08T18:59:01.455Z,22.13
2023-05-08T19:01:28.227Z,23.77
2023-05-08T19:03:55.219Z,22.87
2023-05-08T19:06:21.998Z,18.50
2023-05-08T19:08:48.775Z,21.40
2023-05-08T19:11:15.753Z,24.03
2023-05-08T19:13:42.644Z,18.40
2023-05-08T19:16:09.564Z,23.30
2023-05-08T19:18:36.340Z,19.60
2023-05-08T19:21:03.233Z,19.57
2023-05-08T19:23:30.015Z,20.30
2023-05-08T19:25:57.224Z,22.93
2023-05-08T19:28:24.150Z,24.50
2023-05-08T19:30:50.974Z,20.07
2023-05-08T19:33:21.095Z,21.60
2023-05-08T19:35:48.402Z,22.83
2023-05-08T19:38:15.517Z,19.50
2023-05-08T19:40:55.366Z,19.10
2023-05-08T19:43:25.201Z,20.27
2023-05-08T19:45:52.192Z,22.63
2023-05-08T19:48:20.181Z,28.33
2023-05-08T19:50:47.731Z,18.40
2023-05-08T19:53:14.638Z,18.17
2023-05-08T19:55:41.410Z,19.60
2023-05-08T19:58:08.169Z,16.27
2023-05-08T20:00:35.395Z,21.07
2023-05-08T20:03:02.767Z,17.10
2023-05-08T20:05:29.690Z,17.97
2023-05-08T20:07:56.452Z,16.63
2023-05-08T20:10:23.324Z,16.70
2023-05-08T20:12:50.378Z,18.80
2023-05-08T20:15:17.157Z,18.43
2023-05-08T20:17:44.060Z,18.53
2023-05-08T20:20:11.814Z,17.70
2023-05-08T20:22:38.779Z,18.57
2023-05-08T20:25:06.362Z,16.83
2023-05-08T20:27:33.140Z,19.13
2023-05-08T20:29:59.909Z,21.33
2023-05-08T20:32:26.855Z,21.90
2023-05-08T20:34:53.772Z,21.17
2023-05-08T20:37:20.590Z,19.23
2023-05-08T20:39:47.348Z,21.00
2023-05-08T20:42:14.166Z,18.40
2023-05-08T20:44:40.976Z,20.83
2023-05-08T20:47:07.779Z,18.13
2023-05-08T20:49:34.588Z,18.43
2023-05-08T20:52:01.331Z,21.83
2023-05-08T20:54:29.476Z,20.43
2023-05-08T20:56:56.229Z,24.33
2023-05-08T20:59:23.852Z,24.33
2023-05-08T21:01:50.831Z,19.47
2023-05-08T21:04:17.720Z,19.60
2023-05-08T21:06:44.510Z,19.40
2023-05-08T21:09:11.293Z,18.10
2023-05-08T21:11:38.174Z,19.70
2023-05-08T21:14:05.099Z,17.73
2023-05-08T21:16:31.884Z,21.93
2023-05-08T21:18:58.753Z,17.80
2023-05-08T21:21:25.569Z,17.43
2023-05-08T21:23:52.454Z,19.10
2023-05-08T21:26:21.051Z,17.87
2023-05-08T21:28:48.120Z,18.13
2023-05-08T21:31:14.902Z,17.37
2023-05-08T21:33:41.770Z,17.80
2023-05-08T21:36:08.776Z,19.97
2023-05-08T21:38:35.923Z,18.97
2023-05-08T21:41:08.078Z,19.27
2023-05-08T21:43:36.812Z,23.50
2023-05-08T21:46:05.244Z,20.40
2023-05-08T21:48:32.281Z,17.03
2023-05-08T21:50:59.673Z,20.00
2023-05-08T21:53:26.491Z,18.47
2023-05-08T21:55:53.594Z,20.27
2023-05-08T21:58:20.319Z,18.50
2023-05-08T22:00:47.071Z,19.47
2023-05-08T22:03:14.148Z,17.13
2023-05-08T22:05:40.956Z,18.43
2023-05-08T22:08:07.775Z,23.13
2023-05-08T22:10:34.726Z,16.97
2023-05-08T22:13:01.844Z,20.00
2023-05-08T22:15:30.582Z,17.97
2023-05-08T22:17:58.726Z,20.00
2023-05-08T22:20:26.089Z,20.70
2023-05-08T22:22:53.073Z,15.13
2023-05-08T22:25:21.795Z,28.63
2023-05-08T22:27:48.812Z,18.23
2023-05-08T22:30:15.776Z,15.37
2023-05-08T22:32:42.808Z,16.50
2023-05-08T22:35:09.780Z,21.43
2023-05-08T22:37:36.907Z,18.77
2023-05-08T22:40:03.958Z,18.77
2023-05-08T22:42:31.069Z,20.37
2023-05-08T22:44:57.932Z,20.87
2023-05-08T22:47:25.947Z,19.07
2023-05-08T22:49:52.750Z,22.13
2023-05-08T22:52:19.944Z,20.90
2023-05-08T22:54:46.732Z,21.60
2023-05-08T22:57:14.245Z,26.60
2023-05-08T22:59:40.973Z,30.77
2023-05-08T23:02:08.317Z,22.93
2023-05-08T23:04:35.543Z,37.47
2023-05-08T23:07:02.531Z,45.87
2023-05-08T23:09:30.797Z,29.30
2023-05-08T23:11:57.743Z,32.70
2023-05-08T23:14:24.527Z,17.70
2023-05-08T23:16:51.395Z,28.07
2023-05-08T23:19:18.287Z,39.33
2023-05-08T23:21:45.172Z,42.90
2023-05-08T23:24:11.985Z,32.93
2023-05-08T23:26:40.739Z,20.60
2023-05-08T23:29:09.373Z,18.93
2023-05-08T23:31:36.158Z,15.80
2023-05-08T23:34:03.382Z,20.23
2023-05-08T23:36:30.257Z,19.50
2023-05-08T23:38:57.665Z,17.97
2023-05-08T23:41:26.120Z,23.20
2023-05-08T23:43:52.971Z,26.50
2023-05-08T23:46:19.794Z,25.93
2023-05-08T23:48:46.832Z,19.60
2023-05-08T23:51:13.699Z,19.57
2023-05-08T23:53:40.451Z,31.87
2023-05-08T23:56:07.422Z,22.60
2023-05-08T23:58:34.428Z,22.73
